createdAt,value
2017-10-28T00:01:24.005Z,99059.44
2017-10-28T00:03:52.300Z,99061.11
2017-10-28T00:06:20.973Z,99056.58
2017-10-28T00:08:49.252Z,99057.92
2017-10-28T00:11:18.292Z,99050.24
2017-10-28T00:13:46.568Z,99049.09
2017-10-28T00:16:14.848Z,99045.45
2017-10-28T00:18:43.125Z,99045.31
2017-10-28T00:21:11.524Z,99041.79
2017-10-28T00:23:39.801Z,99038.80
2017-10-28T00:26:08.079Z,99035.66
2017-10-28T00:28:36.366Z,99038.27
2017-10-28T00:31:10.031Z,99037.52
2017-10-28T00:33:43.732Z,99034.00
2017-10-28T00:36:14.816Z,99025.31
2017-10-28T00:38:43.092Z,99020.56
2017-10-28T00:41:11.380Z,99003.57
2017-10-28T00:43:40.418Z,98997.44
2017-10-28T00:46:08.680Z,98998.51
2017-10-28T00:48:36.957Z,98993.06
2017-10-28T00:51:05.233Z,98978.45
2017-10-28T00:53:33.505Z,98981.45
2017-10-28T00:56:01.782Z,98966.33
2017-10-28T00:58:30.997Z,98961.16
2017-10-28T01:00:59.269Z,98954.52
2017-10-28T01:03:27.548Z,98963.44
2017-10-28T01:05:55.817Z,98957.55
2017-10-28T01:08:24.802Z,98957.16
2017-10-28T01:10:53.080Z,98953.87
2017-10-28T01:13:21.356Z,98954.73
2017-10-28T01:15:49.629Z,98942.42
2017-10-28T01:18:17.904Z,98956.09
2017-10-28T01:20:46.184Z,98946.23
2017-10-28T01:23:14.457Z,98940.44
2017-10-28T01:25:42.734Z,98936.30
2017-10-28T01:28:11.008Z,98930.73
2017-10-28T01:30:39.299Z,98919.45
2017-10-28T01:33:07.565Z,98914.53
2017-10-28T01:35:35.846Z,98917.34
2017-10-28T01:38:04.137Z,98906.25
2017-10-28T01:40:32.418Z,98896.17
2017-10-28T01:43:00.701Z,98875.61
2017-10-28T01:45:28.968Z,98875.11
2017-10-28T01:47:57.254Z,98871.50
2017-10-28T01:50:25.541Z,98876.94
2017-10-28T01:52:53.808Z,98860.56
2017-10-28T01:55:22.087Z,98861.06
2017-10-28T01:57:50.364Z,98868.70
2017-10-28T02:00:18.636Z,98869.09
2017-10-28T02:02:46.925Z,98858.47
2017-10-28T02:05:15.204Z,98864.31
2017-10-28T02:07:43.493Z,98844.25
2017-10-28T02:10:12.552Z,98845.53
2017-10-28T02:12:40.842Z,98857.09
2017-10-28T02:15:09.109Z,98853.46
2017-10-28T02:17:38.068Z,98850.12
2017-10-28T02:20:06.343Z,98856.63
2017-10-28T02:22:34.618Z,98845.53
2017-10-28T02:25:02.895Z,98850.16
2017-10-28T02:27:31.171Z,98844.61
2017-10-28T02:29:59.447Z,98842.69
2017-10-28T02:32:27.725Z,98832.12
2017-10-28T02:34:56.000Z,98838.20
2017-10-28T02:37:24.276Z,98825.40
2017-10-28T02:39:52.551Z,98818.57
2017-10-28T02:42:20.828Z,98810.89
2017-10-28T02:44:49.104Z,98812.47
2017-10-28T02:47:17.385Z,98817.67
2017-10-28T02:49:45.670Z,98804.41
2017-10-28T02:52:13.956Z,98816.20
2017-10-28T02:54:42.239Z,98813.30
2017-10-28T02:57:10.537Z,98813.80
2017-10-28T02:59:38.827Z,98807.83
2017-10-28T03:02:07.874Z,98800.99
2017-10-28T03:04:36.157Z,98797.58
2017-10-28T03:07:04.441Z,98802.75
2017-10-28T03:09:32.729Z,98795.56
2017-10-28T03:12:01.601Z,98792.00
2017-10-28T03:14:29.889Z,98799.61
2017-10-28T03:16:58.177Z,98794.96
2017-10-28T03:19:26.465Z,98800.88
2017-10-28T03:21:54.745Z,98801.42
2017-10-28T03:24:23.798Z,98809.98
2017-10-28T03:26:52.092Z,98806.22
2017-10-28T03:29:20.369Z,98801.39
2017-10-28T03:31:48.661Z,98793.45
2017-10-28T03:34:17.433Z,98783.27
2017-10-28T03:36:45.713Z,98767.42
2017-10-28T03:39:13.985Z,98765.31
2017-10-28T03:41:42.256Z,98760.09
2017-10-28T03:44:10.536Z,98754.22
2017-10-28T03:46:38.832Z,98748.64
2017-10-28T03:49:07.890Z,98747.25
2017-10-28T03:51:36.159Z,98753.60
2017-10-28T03:54:04.448Z,98765.09
2017-10-28T03:56:32.729Z,98763.48
2017-10-28T03:59:01.009Z,98752.38
2017-10-28T04:01:29.300Z,98755.20
2017-10-28T04:03:57.589Z,98736.20
2017-10-28T04:06:25.885Z,98720.45
2017-10-28T04:08:54.157Z,98710.29
2017-10-28T04:11:22.438Z,98712.55
2017-10-28T04:13:50.712Z,98701.05
2017-10-28T04:16:19.006Z,98690.80
2017-10-28T04:18:47.284Z,98687.82
2017-10-28T04:21:15.568Z,98687.50
2017-10-28T04:23:43.853Z,98681.31
2017-10-28T04:26:12.134Z,98674.55
2017-10-28T04:28:40.413Z,98667.78
2017-10-28T04:31:08.692Z,98682.42
2017-10-28T04:33:36.983Z,98687.92
2017-10-28T04:36:05.272Z,98701.93
2017-10-28T04:38:33.561Z,98698.14
2017-10-28T04:41:02.617Z,98703.23
2017-10-28T04:43:30.900Z,98685.18
2017-10-28T04:45:59.178Z,98680.09
2017-10-28T04:48:27.455Z,98682.16
2017-10-28T04:50:55.780Z,98682.04
2017-10-28T04:53:24.757Z,98670.75
2017-10-28T04:55:53.808Z,98648.97
2017-10-28T04:58:22.092Z,98642.23
2017-10-28T05:00:50.377Z,98635.42
2017-10-28T05:03:18.663Z,98626.74
2017-10-28T05:05:46.946Z,98629.71
2017-10-28T05:08:16.001Z,98631.05
2017-10-28T05:10:44.323Z,98622.11
2017-10-28T05:13:13.363Z,98628.91
2017-10-28T05:15:41.648Z,98629.39
2017-10-28T05:18:09.925Z,98613.58
2017-10-28T05:20:38.211Z,98611.47
2017-10-28T05:23:06.491Z,98588.78
2017-10-28T05:25:34.770Z,98596.40
2017-10-28T05:28:03.044Z,98589.63
2017-10-28T05:30:31.332Z,98575.91
2017-10-28T05:33:01.024Z,98579.78
2017-10-28T05:35:29.309Z,98566.09
2017-10-28T05:37:57.585Z,98578.06
2017-10-28T05:40:25.867Z,98562.27
2017-10-28T05:42:54.152Z,98571.72
2017-10-28T05:45:22.433Z,98549.95
2017-10-28T05:47:50.724Z,98531.15
2017-10-28T05:50:19.013Z,98564.89
2017-10-28T05:52:47.328Z,98568.73
2017-10-28T05:55:15.605Z,98570.92
2017-10-28T05:57:43.884Z,98565.31
2017-10-28T06:00:12.172Z,98558.45
2017-10-28T06:02:41.225Z,98542.23
2017-10-28T06:05:09.509Z,98552.09
2017-10-28T06:07:37.943Z,98542.70
2017-10-28T06:10:06.229Z,98510.20
2017-10-28T06:12:34.500Z,98542.25
2017-10-28T06:15:03.432Z,98544.80
2017-10-28T06:17:31.709Z,98543.52
2017-10-28T06:19:59.992Z,98530.61
2017-10-28T06:22:28.273Z,98535.38
2017-10-28T06:24:56.553Z,98538.81
2017-10-28T06:27:24.828Z,98528.45
2017-10-28T06:29:53.113Z,98528.46
2017-10-28T06:32:21.391Z,98527.16
2017-10-28T06:34:49.660Z,98537.94
2017-10-28T06:37:17.942Z,98528.52
2017-10-28T06:39:46.247Z,98512.70
2017-10-28T06:42:14.521Z,98500.33
2017-10-28T06:44:42.813Z,98500.31
2017-10-28T06:47:11.096Z,98495.64
2017-10-28T06:49:40.144Z,98515.27
2017-10-28T06:52:08.437Z,98516.09
2017-10-28T06:54:36.713Z,98528.80
2017-10-28T06:57:05.009Z,98517.77
2017-10-28T06:59:33.284Z,98520.40
2017-10-28T07:02:02.350Z,98516.13
2017-10-28T07:04:30.628Z,98525.00
2017-10-28T07:06:58.903Z,98513.78
2017-10-28T07:09:27.179Z,98514.41
2017-10-28T07:11:55.452Z,98510.81
2017-10-28T07:14:23.725Z,98516.10
2017-10-28T07:16:52.000Z,98512.31
2017-10-28T07:19:20.280Z,98507.23
2017-10-28T07:21:48.559Z,98502.06
2017-10-28T07:24:16.835Z,98501.23
2017-10-28T07:26:45.443Z,98493.53
2017-10-28T07:29:14.490Z,98492.66
2017-10-28T07:31:42.762Z,98489.52
2017-10-28T07:34:11.028Z,98499.86
2017-10-28T07:36:39.305Z,98501.64
2017-10-28T07:39:07.582Z,98498.22
2017-10-28T07:41:36.359Z,98507.59
2017-10-28T07:44:04.647Z,98534.95
2017-10-28T07:46:32.930Z,98543.44
2017-10-28T07:49:01.220Z,98536.63
2017-10-28T07:51:29.509Z,98531.89
2017-10-28T07:53:57.853Z,98528.97
2017-10-28T07:56:26.189Z,98512.70
2017-10-28T07:58:54.488Z,98510.09
2017-10-28T08:01:22.773Z,98498.50
2017-10-28T08:03:56.456Z,98493.85
2017-10-28T08:06:24.745Z,98485.36
2017-10-28T08:08:53.036Z,98482.85
2017-10-28T08:11:21.330Z,98464.03
2017-10-28T08:13:49.609Z,98436.67
2017-10-28T08:16:17.904Z,98443.87
2017-10-28T08:18:46.174Z,98434.96
2017-10-28T08:21:14.443Z,98431.10
2017-10-28T08:23:42.717Z,98434.56
2017-10-28T08:26:10.987Z,98422.17
2017-10-28T08:28:39.252Z,98437.57
2017-10-28T08:31:07.526Z,98443.14
2017-10-28T08:33:35.799Z,98437.56
2017-10-28T08:36:04.073Z,98441.38
2017-10-28T08:38:32.348Z,98454.60
2017-10-28T08:41:00.622Z,98455.05
2017-10-28T08:43:28.899Z,98447.81
2017-10-28T08:45:57.230Z,98453.81
2017-10-28T08:48:26.289Z,98455.07
2017-10-28T08:50:54.580Z,98442.68
2017-10-28T08:53:22.868Z,98457.20
2017-10-28T08:55:51.158Z,98433.28
2017-10-28T08:58:19.450Z,98439.69
2017-10-28T09:00:48.505Z,98447.36
2017-10-28T09:03:16.793Z,98453.37
2017-10-28T09:05:45.119Z,98441.86
2017-10-28T09:08:13.386Z,98437.11
2017-10-28T09:10:41.662Z,98424.75
2017-10-28T09:13:10.717Z,98407.23
2017-10-28T09:15:39.009Z,98411.09
2017-10-28T09:18:08.235Z,98403.38
2017-10-28T09:20:36.528Z,98418.76
2017-10-28T09:23:04.848Z,98426.03
2017-10-28T09:25:33.136Z,98414.06
2017-10-28T09:28:02.205Z,98395.70
2017-10-28T09:30:30.489Z,98419.20
2017-10-28T09:32:58.780Z,98412.38
2017-10-28T09:35:27.066Z,98399.97
2017-10-28T09:37:55.338Z,98394.41
2017-10-28T09:40:24.395Z,98399.11
2017-10-28T09:42:52.682Z,98388.46
2017-10-28T09:45:20.963Z,98404.67
2017-10-28T09:47:49.773Z,98411.39
2017-10-28T09:50:18.044Z,98403.36
2017-10-28T09:52:46.328Z,98409.23
2017-10-28T09:55:15.368Z,98400.74
2017-10-28T09:57:43.665Z,98396.56
2017-10-28T10:00:11.928Z,98397.81
2017-10-28T10:02:40.215Z,98381.59
2017-10-28T10:05:08.484Z,98393.56
2017-10-28T10:07:36.772Z,98394.84
2017-10-28T10:10:05.059Z,98385.02
2017-10-28T10:12:33.347Z,98382.46
2017-10-28T10:15:01.634Z,98369.62
2017-10-28T10:17:30.828Z,98365.38
2017-10-28T10:19:59.108Z,98375.20
2017-10-28T10:22:27.400Z,98380.73
2017-10-28T10:24:55.701Z,98376.48
2017-10-28T10:27:24.755Z,98369.20
2017-10-28T10:29:54.473Z,98379.03
2017-10-28T10:32:22.748Z,98386.30
2017-10-28T10:34:51.802Z,98361.53
2017-10-28T10:37:20.094Z,98347.02
2017-10-28T10:39:48.392Z,98346.16
2017-10-28T10:42:16.699Z,98332.39
2017-10-28T10:44:44.982Z,98331.08
2017-10-28T10:47:13.256Z,98318.66
2017-10-28T10:49:41.537Z,98321.67
2017-10-28T10:52:09.825Z,98321.66
2017-10-28T10:54:38.109Z,98314.45
2017-10-28T10:57:06.403Z,98306.78
2017-10-28T10:59:34.676Z,98314.53
2017-10-28T11:02:02.936Z,98313.22
2017-10-28T11:04:32.133Z,98302.11
2017-10-28T11:07:00.405Z,98300.74
2017-10-28T11:09:28.684Z,98285.33
2017-10-28T11:11:56.964Z,98279.91
2017-10-28T11:14:25.241Z,98282.85
2017-10-28T11:16:53.527Z,98294.23
2017-10-28T11:19:21.819Z,98295.68
2017-10-28T11:21:50.108Z,98284.63
2017-10-28T11:24:18.403Z,98283.28
2017-10-28T11:26:47.310Z,98287.56
2017-10-28T11:29:15.597Z,98283.63
2017-10-28T11:31:43.887Z,98271.81
2017-10-28T11:34:12.164Z,98267.04
2017-10-28T11:36:40.684Z,98246.93
2017-10-28T11:39:09.727Z,98238.82
2017-10-28T11:41:38.015Z,98228.95
2017-10-28T11:44:06.305Z,98235.72
2017-10-28T11:46:34.585Z,98224.02
2017-10-28T11:49:02.885Z,98261.57
2017-10-28T11:51:31.165Z,98241.82
2017-10-28T11:54:00.213Z,98232.85
2017-10-28T11:56:28.490Z,98225.39
2017-10-28T11:58:56.766Z,98222.10
2017-10-28T12:01:25.122Z,98213.13
2017-10-28T12:03:53.425Z,98223.09
2017-10-28T12:06:21.712Z,98199.59
2017-10-28T12:08:49.997Z,98194.42
2017-10-28T12:11:18.302Z,98189.98
2017-10-28T12:13:46.583Z,98190.09
2017-10-28T12:16:14.866Z,98193.60
2017-10-28T12:18:43.156Z,98195.31
2017-10-28T12:21:11.438Z,98193.01
2017-10-28T12:23:39.722Z,98186.96
2017-10-28T12:26:08.005Z,98184.66
2017-10-28T12:28:36.293Z,98172.23
2017-10-28T12:31:04.568Z,98148.77
2017-10-28T12:33:32.852Z,98145.81
2017-10-28T12:36:01.148Z,98152.91
2017-10-28T12:38:29.488Z,98147.46
2017-10-28T12:40:57.768Z,98149.75
2017-10-28T12:43:26.056Z,98138.31
2017-10-28T12:45:54.337Z,98125.13
2017-10-28T12:48:22.631Z,98120.19
2017-10-28T12:50:51.696Z,98111.61
2017-10-28T12:53:19.971Z,98127.03
2017-10-28T12:55:48.236Z,98127.39
2017-10-28T12:58:16.506Z,98122.33
2017-10-28T13:00:44.794Z,98127.81
2017-10-28T13:03:13.061Z,98103.63
2017-10-28T13:05:41.339Z,98111.58
2017-10-28T13:08:09.617Z,98103.97
2017-10-28T13:10:38.880Z,98096.41
2017-10-28T13:13:07.153Z,98090.03
2017-10-28T13:15:35.418Z,98091.83
2017-10-28T13:18:04.460Z,98089.58
2017-10-28T13:20:32.731Z,98086.63
2017-10-28T13:23:01.001Z,98082.20
2017-10-28T13:25:29.279Z,98085.38
2017-10-28T13:27:57.554Z,98083.62
2017-10-28T13:30:25.838Z,98078.97
2017-10-28T13:32:54.124Z,98065.17
2017-10-28T13:35:22.401Z,98062.57
2017-10-28T13:37:50.681Z,98059.98
2017-10-28T13:40:18.972Z,98055.13
2017-10-28T13:42:47.251Z,98064.47
2017-10-28T13:45:15.539Z,98059.78
2017-10-28T13:47:43.818Z,98042.41
2017-10-28T13:50:12.097Z,98046.13
2017-10-28T13:52:41.143Z,98041.83
2017-10-28T13:55:09.419Z,98052.88
2017-10-28T13:57:37.701Z,98044.68
2017-10-28T14:00:05.984Z,98024.61
2017-10-28T14:02:34.270Z,98017.77
2017-10-28T14:05:02.550Z,98025.53
2017-10-28T14:07:30.844Z,98019.05
2017-10-28T14:09:59.116Z,98014.30
2017-10-28T14:12:27.639Z,98007.09
2017-10-28T14:14:58.724Z,98017.36
2017-10-28T14:17:27.012Z,98012.28
2017-10-28T14:19:55.301Z,98009.25
2017-10-28T14:22:24.581Z,98028.36
2017-10-28T14:24:52.864Z,98027.62
2017-10-28T14:27:21.148Z,98042.78
2017-10-28T14:29:49.428Z,98028.39
2017-10-28T14:32:17.705Z,98013.16
2017-10-28T14:34:46.759Z,98019.95
2017-10-28T14:37:15.046Z,98029.98
2017-10-28T14:39:43.322Z,98021.86
2017-10-28T14:42:11.597Z,98032.08
2017-10-28T14:44:39.885Z,98027.87
2017-10-28T14:47:08.171Z,98024.73
2017-10-28T14:49:36.456Z,98019.52
2017-10-28T14:52:04.751Z,98026.41
2017-10-28T14:54:33.044Z,98009.83
2017-10-28T14:57:01.320Z,98000.71
2017-10-28T14:59:29.603Z,98016.70
2017-10-28T15:01:57.900Z,98001.38
2017-10-28T15:04:26.177Z,97990.14
2017-10-28T15:06:54.457Z,97979.88
2017-10-28T15:09:22.745Z,97984.33
2017-10-28T15:11:51.036Z,97986.16
2017-10-28T15:14:19.326Z,97984.73
2017-10-28T15:16:47.622Z,97980.52
2017-10-28T15:19:16.756Z,97992.28
2017-10-28T15:21:45.040Z,97983.07
2017-10-28T15:24:13.325Z,97982.13
2017-10-28T15:26:41.605Z,97972.05
2017-10-28T15:29:09.889Z,97964.30
2017-10-28T15:31:38.167Z,97966.41
2017-10-28T15:34:07.226Z,97974.11
2017-10-28T15:36:35.502Z,97970.38
2017-10-28T15:39:04.557Z,97967.36
2017-10-28T15:41:32.832Z,97965.27
2017-10-28T15:44:01.121Z,97960.66
2017-10-28T15:46:29.404Z,97958.36
2017-10-28T15:48:57.695Z,97960.63
2017-10-28T15:51:25.971Z,97950.81
2017-10-28T15:53:54.249Z,97936.22
2017-10-28T15:56:22.529Z,97942.63
2017-10-28T15:58:50.815Z,97936.31
2017-10-28T16:01:19.148Z,97926.88
2017-10-28T16:03:47.432Z,97918.20
2017-10-28T16:06:17.015Z,97927.57
2017-10-28T16:08:45.306Z,97929.29
2017-10-28T16:11:13.583Z,97935.32
2017-10-28T16:13:41.869Z,97952.52
2017-10-28T16:16:10.213Z,97935.34
2017-10-28T16:18:39.265Z,97940.45
2017-10-28T16:21:07.542Z,97923.95
2017-10-28T16:23:35.835Z,97919.67
2017-10-28T16:26:04.152Z,97922.22
2017-10-28T16:28:32.436Z,97908.52
2017-10-28T16:31:00.733Z,97907.83
2017-10-28T16:33:29.009Z,97911.25
2017-10-28T16:35:57.320Z,97908.72
2017-10-28T16:38:25.601Z,97912.54
2017-10-28T16:40:53.873Z,97907.88
2017-10-28T16:43:22.148Z,97899.78
2017-10-28T16:45:50.441Z,97900.25
2017-10-28T16:48:19.500Z,97901.91
2017-10-28T16:50:47.792Z,97894.31
2017-10-28T16:53:16.074Z,97883.63
2017-10-28T16:55:44.368Z,97883.61
2017-10-28T16:58:12.648Z,97874.33
2017-10-28T17:00:40.939Z,97884.66
2017-10-28T17:03:09.988Z,97881.58
2017-10-28T17:05:38.272Z,97886.66
2017-10-28T17:08:06.544Z,97885.77
2017-10-28T17:10:34.818Z,97890.05
2017-10-28T17:13:03.091Z,97884.89
2017-10-28T17:15:31.365Z,97878.97
2017-10-28T17:17:59.640Z,97870.50
2017-10-28T17:20:27.928Z,97870.06
2017-10-28T17:22:56.847Z,97869.70
2017-10-28T17:25:25.135Z,97863.28
2017-10-28T17:27:53.428Z,97856.05
2017-10-28T17:30:22.003Z,97850.11
2017-10-28T17:32:50.291Z,97850.12
2017-10-28T17:35:18.581Z,97837.31
2017-10-28T17:37:46.852Z,97832.18
2017-10-28T17:40:15.137Z,97835.63
2017-10-28T17:42:43.408Z,97825.41
2017-10-28T17:45:11.684Z,97828.84
2017-10-28T17:47:39.961Z,97829.17
2017-10-28T17:50:08.249Z,97822.36
2017-10-28T17:52:36.558Z,97825.33
2017-10-28T17:55:04.829Z,97820.14
2017-10-28T17:57:33.109Z,97814.31
2017-10-28T18:00:01.389Z,97809.53
2017-10-28T18:02:29.664Z,97808.28
2017-10-28T18:04:57.945Z,97809.14
2017-10-28T18:07:27.001Z,97799.81
2017-10-28T18:09:55.277Z,97794.27
2017-10-28T18:12:23.550Z,97790.41
2017-10-28T18:14:51.836Z,97777.16
2017-10-28T18:17:20.118Z,97772.06
2017-10-28T18:19:48.407Z,97766.93
2017-10-28T18:22:16.692Z,97762.72
2017-10-28T18:24:44.972Z,97763.09
2017-10-28T18:27:13.244Z,97767.84
2017-10-28T18:29:41.526Z,97756.29
2017-10-28T18:32:09.802Z,97755.06
2017-10-28T18:34:38.110Z,97747.81
2017-10-28T18:37:06.403Z,97739.19
2017-10-28T18:39:34.680Z,97732.86
2017-10-28T18:42:03.058Z,97727.24
2017-10-28T18:44:31.409Z,97713.50
2017-10-28T18:46:59.708Z,97716.61
2017-10-28T18:49:28.022Z,97707.98
2017-10-28T18:51:56.335Z,97707.59
2017-10-28T18:54:24.618Z,97705.11
2017-10-28T18:56:52.908Z,97693.53
2017-10-28T18:59:21.213Z,97691.87
2017-10-28T19:01:49.507Z,97697.43
2017-10-28T19:04:17.854Z,97687.73
2017-10-28T19:06:46.319Z,97689.36
2017-10-28T19:09:14.714Z,97680.39
2017-10-28T19:11:43.142Z,97674.39
2017-10-28T19:14:11.504Z,97654.45
2017-10-28T19:16:39.882Z,97654.84
2017-10-28T19:19:09.212Z,97640.22
2017-10-28T19:21:37.730Z,97640.73
2017-10-28T19:24:06.097Z,97627.84
2017-10-28T19:26:34.506Z,97625.30
2017-10-28T19:29:02.855Z,97635.48
2017-10-28T19:31:31.933Z,97626.97
2017-10-28T19:34:00.638Z,97613.27
2017-10-28T19:36:29.014Z,97615.30
2017-10-28T19:38:57.329Z,97610.69
2017-10-28T19:41:25.681Z,97599.07
2017-10-28T19:43:55.252Z,97586.72
2017-10-28T19:46:23.564Z,97591.27
2017-10-28T19:48:52.014Z,97580.18
2017-10-28T19:51:20.391Z,97575.38
2017-10-28T19:53:48.732Z,97577.64
2017-10-28T19:56:18.995Z,97548.69
2017-10-28T19:58:47.676Z,97559.55
2017-10-28T20:01:16.503Z,97556.89
2017-10-28T20:03:44.882Z,97546.11
2017-10-28T20:06:14.944Z,97538.50
2017-10-28T20:08:43.269Z,97536.80
2017-10-28T20:11:11.553Z,97526.73
2017-10-28T20:13:39.849Z,97524.16
2017-10-28T20:16:08.453Z,97527.58
2017-10-28T20:18:36.752Z,97520.60
2017-10-28T20:21:05.048Z,97508.77
2017-10-28T20:23:33.349Z,97499.22
2017-10-28T20:26:01.704Z,97489.52
2017-10-28T20:28:30.673Z,97474.80
2017-10-28T20:30:58.973Z,97479.88
2017-10-28T20:33:27.289Z,97472.22
2017-10-28T20:35:55.588Z,97477.70
2017-10-28T20:38:23.888Z,97475.14
2017-10-28T20:40:52.185Z,97469.06
2017-10-28T20:43:20.472Z,97461.66
2017-10-28T20:45:48.761Z,97463.83
2017-10-28T20:48:17.036Z,97445.33
2017-10-28T20:50:45.342Z,97443.69
2017-10-28T20:53:13.637Z,97433.72
2017-10-28T20:55:41.940Z,97421.36
2017-10-28T20:58:11.089Z,97415.22
2017-10-28T21:00:39.389Z,97407.63
2017-10-28T21:03:07.690Z,97402.66
2017-10-28T21:05:35.986Z,97395.89
2017-10-28T21:08:04.278Z,97392.77
2017-10-28T21:10:32.576Z,97390.62
2017-10-28T21:13:00.873Z,97372.92
2017-10-28T21:15:29.175Z,97370.91
2017-10-28T21:17:57.455Z,97361.77
2017-10-28T21:20:26.495Z,97358.34
2017-10-28T21:22:54.818Z,97365.16
2017-10-28T21:25:23.857Z,97344.16
2017-10-28T21:27:52.149Z,97344.12
2017-10-28T21:30:20.432Z,97343.09
2017-10-28T21:32:48.729Z,97330.25
2017-10-28T21:35:17.021Z,97327.52
2017-10-28T21:37:45.300Z,97327.62
2017-10-28T21:40:13.583Z,97316.61
2017-10-28T21:42:41.870Z,97311.19
2017-10-28T21:45:10.160Z,97300.91
2017-10-28T21:47:38.441Z,97302.15
2017-10-28T21:50:06.732Z,97296.45
2017-10-28T21:52:35.767Z,97288.30
2017-10-28T21:55:04.046Z,97270.56
2017-10-28T21:57:32.318Z,97263.20
2017-10-28T22:00:00.589Z,97251.50
2017-10-28T22:02:28.870Z,97233.63
2017-10-28T22:04:57.152Z,97243.13
2017-10-28T22:07:25.441Z,97231.61
2017-10-28T22:09:53.725Z,97210.13
2017-10-28T22:12:22.013Z,97217.89
2017-10-28T22:14:50.336Z,97200.36
2017-10-28T22:17:19.393Z,97190.95
2017-10-28T22:19:47.686Z,97176.91
2017-10-28T22:22:15.973Z,97185.62
2017-10-28T22:24:45.033Z,97168.34
2017-10-28T22:27:13.324Z,97164.41
2017-10-28T22:29:41.600Z,97158.28
2017-10-28T22:32:09.887Z,97155.89
2017-10-28T22:34:38.181Z,97153.00
2017-10-28T22:37:06.473Z,97144.41
2017-10-28T22:39:34.752Z,97143.48
2017-10-28T22:42:03.045Z,97144.29
2017-10-28T22:44:31.331Z,97139.26
2017-10-28T22:46:59.619Z,97139.67
2017-10-28T22:49:27.900Z,97137.81
2017-10-28T22:51:56.185Z,97139.15
2017-10-28T22:54:24.539Z,97118.85
2017-10-28T22:56:52.814Z,97100.58
2017-10-28T22:59:21.100Z,97101.16
2017-10-28T23:01:49.381Z,97094.91
2017-10-28T23:04:17.688Z,97077.66
2017-10-28T23:06:45.976Z,97082.53
2017-10-28T23:09:14.252Z,97075.92
2017-10-28T23:11:43.306Z,97065.22
2017-10-28T23:14:11.579Z,97058.64
2017-10-28T23:16:39.861Z,97054.30
2017-10-28T23:19:08.148Z,97042.44
2017-10-28T23:21:36.449Z,97039.08
2017-10-28T23:24:05.496Z,97022.38
2017-10-28T23:26:33.794Z,97030.10
2017-10-28T23:29:02.081Z,97033.88
2017-10-28T23:31:30.370Z,97016.41
2017-10-28T23:33:58.653Z,97014.55
2017-10-28T23:36:27.261Z,97010.72
2017-10-28T23:38:55.544Z,96985.77
2017-10-28T23:41:23.828Z,96992.48
2017-10-28T23:43:52.104Z,96980.30
2017-10-28T23:46:20.392Z,96972.80
2017-10-28T23:48:48.668Z,96977.18
2017-10-28T23:51:16.941Z,96978.05
2017-10-28T23:53:45.994Z,96964.64
2017-10-28T23:56:14.588Z,96960.07
2017-10-28T23:58:42.877Z,96950.11
